ADDS METAR Data INFO
IDs: Format: Raw Decoded Include TAF

Data at: 0326 UTC 16 Dec 2017

KCLE 160251Z 23010KT 10SM OVC055 M03/M08 A2998 RMK AO2 SLP164 T10331083 51014
KCLE 160151Z 24012KT 10SM BKN050 M03/M09 A2997 RMK AO2 SLP161 T10331089
KCLE 160051Z 25015KT 10SM OVC047 M03/M08 A2995 RMK AO2 SLP156 T10281083
KCLE 152351Z 25014KT 10SM OVC050 M03/M07 A2994 RMK AO2 PK WND 25027/2306 SLP151 4/004 60000 T10281072 11028 21033 53019
KCLE 152251Z 25018KT 10SM OVC055 M03/M08 A2991 RMK AO2 SLP143 T10281078
KCLE 152151Z 25018KT 9SM OVC060 M03/M07 A2990 RMK AO2 SNE00 SLP137 P0000 T10281072
KCLE 152051Z 23016G22KT 5SM -SN BLSN FEW014 SCT022 OVC050 M03/M06 A2988 RMK AO2 SNB1957E48B50 SLP132 P0000 60000 T10331061 53002
KCLE 152048Z 23014KT 5SM BLSN FEW014 BKN044 OVC055 M03/M06 A2988 RMK AO2 SNB1957E48 P0000
KCLE 152041Z 23013G20KT 3SM -SN BLSN FEW020 BKN027 OVC055 M03/M06 A2988 RMK AO2 SNB1957 P0000 T10331056
KCLE 152019Z 23014KT 1 1/2SM -SN BLSN FEW019 OVC024 M03/M06 A2988 RMK AO2 SNB1957 P0000 T10331061
KCLE 151951Z 22010KT 9SM BKN028 OVC030 M03/M07 A2987 RMK AO2 SNE37 SLP127 P0000 T10281072
KCLE 151851Z 23013KT 4SM -SN BKN028 OVC033 M03/M08 A2988 RMK AO2 SNB20 SLP130 P0000 T10331083
KCLE 151751Z 21014KT 10SM OVC044 M03/M11 A2988 RMK AO2 SLP133 4/004 933006 T10331106 11033 21111 58027
KCLE 151651Z 20010KT 10SM BKN042 OVC050 M04/M11 A2991 RMK AO2 SLP143 T10441111
KCLE 151551Z 20013KT 10SM BKN047 OVC100 M06/M12 A2995 RMK AO2 SLP154 T10611117
KCLE 151451Z 18010KT 10SM SCT047 OVC100 M07/M12 A2997 RMK AO2 SLP161 T10671122 56015
KCLE 151351Z 18006KT 10SM OVC045 M09/M13 A2998 RMK AO2 SLP166 T10891128
KCLE 151251Z 17006KT 10SM FEW034 OVC046 M11/M13 A3000 RMK AO2 SLP173 T11061133
KCLE 151151Z 19005KT 10SM FEW035 BKN044 OVC190 M11/M14 A3001 RMK AO2 SLP178 4/004 T11111144 11111 21144 56010
KCLE 151051Z 20005KT 10SM FEW180 BKN240 M13/M16 A3001 RMK AO2 SLP178 T11281156
KCLE 150951Z 19004KT 10SM SCT180 BKN250 M13/M16 A3002 RMK AO2 SLP180 T11331161
KCLE 150851Z 23004KT 10SM FEW025 FEW180 SCT250 M14/M16 A3004 RMK AO2 SLP187 T11391161 56012
KCLE 150751Z 18005KT 10SM SCT025 BKN250 M12/M15 A3005 RMK AO2 SLP188 T11221150
KCLE 150737Z 19004KT 10SM SCT025 BKN250 M13/M15 A3006 RMK AO2 T11281150
KCLE 150651Z 20006KT 10SM BKN024 BKN250 M11/M14 A3006 RMK AO2 SLP193 T11111144
KCLE 150551Z 20007KT 10SM FEW035 SCT250 M12/M14 A3008 RMK AO2 SLP199 4/004 T11171144 11083 21122 58006
KCLE 150451Z 22005KT 10SM SCT250 M12/M14 A3009 RMK AO2 SLP204 T11171139 410221122
KCLE 150351Z 21006KT 10SM SCT210 M11/M13 A3010 RMK AO2 SLP206 T11111133
KCLE 150251Z 22003KT 10SM SCT250 M11/M12 A3010 RMK AO2 SLP206 T11061122 56001
KCLE 150151Z 23005KT 10SM BKN250 M10/M12 A3010 RMK AO2 SLP206 T11001122
KCLE 150051Z 24005KT 10SM BKN250 M09/M12 A3010 RMK AO2 SLP205 T10941117
KCLE 142351Z 25007KT 10SM FEW031 SCT250 M09/M12 A3010 RMK AO2 SLP206 4/004 T10891117 11028 21089 53021
KCLE 142251Z 26008KT 10SM FEW023 OVC031 M06/M10 A3008 RMK AO2 SLP196 T10611100
KCLE 142230Z 27006KT 10SM SCT025 BKN033 BKN250 M06/M10 A3007 RMK AO2 T10561100
KCLE 142151Z 26008KT 10SM BKN028 BKN033 BKN250 M05/M10 A3005 RMK AO2 SLP186 T10501100
KCLE 142133Z 27010KT 10SM SCT024 OVC030 M04/M09 A3004 RMK AO2 T10441094
KCLE 142051Z 30009KT 10SM BKN025 OVC029 M04/M09 A3004 RMK AO2 SLP182 T10441094 53007
KCLE 141951Z 27009KT 10SM BKN024 BKN250 M04/M09 A3002 RMK AO2 SLP176 T10391094
KCLE 141851Z 29008G15KT 10SM BKN026 BKN250 M03/M09 A3001 RMK AO2 SLP173 T10331094
KCLE 141814Z 30011KT 10SM BKN028 BKN034 M03/M09 A3002 RMK AO2 T10331089
KCLE 141751Z 28009KT 10SM FEW029 BKN032 M03/M09 A3001 RMK AO2 SLP174 4/005 933008 60000 T10331094 11028 21044 50013
KCLE 141651Z 27006KT 10SM SCT029 BKN033 M03/M09 A3003 RMK AO2 SLP179 T10281094
KCLE 141551Z 34009KT 10SM SCT025 BKN033 M03/M10 A3001 RMK AO2 SNE30 SLP174 P0000 T10331100